Date,TemperatureHighF,TemperatureAvgF,TemperatureLowF,DewpointHighF,DewpointAvgF,DewpointLowF,HumidityHigh,HumidityAvg,HumidityLow,PressureMaxIn,PressureMinIn,WindSpeedMaxMPH,WindSpeedAvgMPH,GustSpeedMaxMPH,PrecipitationSumIn
2013-7-1,80,70,61,58,52,43,74,53,32,29.92,29.84,25,8,29,0.00
2013-7-2,74,66,61,59,56,54,89,70,49,29.95,29.88,16,7,22,0.00
2013-7-3,80,68,61,61,56,47,91,69,31,29.99,29.91,7,1,14,0.00
2013-7-4,82,72,61,64,60,54,89,66,47,30.01,29.93,10,2,16,0.00
2013-7-5,83,73,63,69,64,58,100,75,48,30.00,29.92,8,1,12,0.00
2013-7-6,84,74,66,70,67,63,100,82,53,29.97,29.89,10,1,14,0.00
2013-7-7,88,77,66,72,68,63,93,75,52,29.94,29.86,14,3,18,0.00
2013-7-8,86,77,72,78,72,68,100,84,57,29.97,29.87,13,2,18,0.08
2013-7-9,91,81,75,77,74,73,93,81,59,29.92,29.78,10,2,16,0.00
2013-7-10,88,77,69,81,71,62,100,82,50,29.91,29.74,11,3,19,0.18
2013-7-11,84,72,62,64,59,54,91,65,36,29.99,29.91,11,2,13,0.00
2013-7-12,85,72,58,61,54,43,84,57,24,30.05,29.96,10,2,13,0.00
2013-7-13,85,74,60,66,61,56,91,67,42,30.04,29.97,10,2,16,0.00
2013-7-14,92,78,65,72,68,63,94,73,43,30.07,29.99,10,2,14,0.00
2013-7-15,90,81,72,76,73,69,93,77,56,30.15,30.06,7,1,10,0.00
2013-7-16,91,81,72,74,72,69,97,75,51,30.22,30.14,9,2,14,0.00
2013-7-17,93,83,72,76,72,70,95,72,48,30.22,30.08,7,1,12,0.00
2013-7-18,92,83,74,77,74,72,96,76,54,30.09,29.89,11,2,14,0.00
2013-7-19,93,83,74,77,74,71,93,74,49,29.89,29.72,11,3,20,0.00
2013-7-20,90,81,71,74,68,60,92,67,38,29.82,29.71,10,2,14,0.00
2013-7-21,81,74,66,74,70,65,100,88,75,29.84,29.75,6,1,11,0.04
2013-7-22,86,76,64,75,70,64,100,82,54,29.75,29.66,8,1,11,0.18
2013-7-23,83,73,63,72,65,57,100,78,51,29.84,29.65,14,3,17,0.04
2013-7-24,80,67,58,57,54,50,91,65,39,29.95,29.84,18,4,18,0.00
2013-7-25,82,69,52,61,55,50,94,64,38,30.02,29.94,6,0,9,0.00
2013-7-26,72,66,62,69,63,58,100,90,77,29.97,29.82,11,2,19,0.06
2013-7-27,69,62,52,60,53,46,100,74,49,29.89,29.82,11,3,20,0.00
2013-7-28,74,62,49,54,51,47,96,71,48,29.96,29.86,14,2,22,0.00
2013-7-29,79,66,52,58,53,49,98,68,37,30.07,29.96,7,1,10,0.00
2013-7-30,67,65,63,67,63,56,100,92,69,30.06,29.94,13,2,14,0.42
2013-7-31,76,69,64,74,67,64,100,95,75,29.95,29.88,7,1,12,0.01